Startpagina
METAR-TAF:

METAR-TAF

Vliegvelden :

Lleida-Alguaire

Lleida, Spanje

breedte: 41-43-40N, lengte: 000-32-09E, hoogte: 350 m

Actueel weer

Dit bericht is 37 minuten geleden gemaakt, om 07:30 UTC
Wind 5 kt uit het zuidzuidoosten, variërend tussen het oostzuidoosten en het zuidzuidwesten
Temperatuur 21°C
Vochtigheid 60%
Druk 1022 hPa
Zicht 10 km of meer
geen wolken onder 1500 m en geen cumulonimbus

METAR: LEDA 050730Z AUTO 16005KT 120V200 CAVOK 21/13 Q1022

Tijdstip: 10:07 (08:07 UTC)


TAF: ontbreekt

Waarnemingen en weersverwachtingen van meer dan 4000 vliegvelden (METAR en TAF).

De beschikbare stations zijn de gele en rode punten op de kaart.

Ga met uw muis naar het station om de naam te zien.

Klik dan om waarnemingen en weersverwachtingen te zien.

kaart wijzigen: klik op de groene knoppen met een zwart kruis om in te zoomen, op de groene knop met een streepje om uit te zoomen of op de groene pijlen voor aangrenzende kaarten.


METAR-TAF: